Time;durP1;ratioP1;P1;durP2;ratioP2;P2;SDS_P1;SDS_P2;PMS_P1;PMS_P2;Temp;Humidity;BMP_temperature;BMP_pressure;BME280_temperature;BME280_humidity;BME280_pressure;Samples;Min_cycle;Max_cycle;Signal;HPM_P1;HPM_P2
2022/05/05 00:01:41;;;;;;;16.25;8.27;;;13.90;99.90;;;;;;4200456;28;20171;-92
2022/05/05 00:03:42;;;;;;;17.02;8.80;;;14.10;99.90;;;;;;4200463;28;20655;-90
2022/05/05 00:05:42;;;;;;;17.25;8.65;;;14.10;99.90;;;;;;4216977;28;20265;-93
2022/05/05 00:07:43;;;;;;;15.73;8.15;;;14.10;99.90;;;;;;4200331;28;20248;-90
2022/05/05 00:09:44;;;;;;;16.70;8.95;;;14.10;99.90;;;;;;4199925;28;20246;-90
2022/05/05 00:16:24;;;;;;;15.88;7.95;;;14.30;99.90;;;;;;4217007;28;20182;-90
2022/05/05 00:18:25;;;;;;;18.33;8.85;;;14.30;99.90;;;;;;4200187;28;20186;-89
2022/05/05 00:20:25;;;;;;;18.48;8.85;;;14.30;99.90;;;;;;4199645;28;20221;-89
2022/05/05 00:22:26;;;;;;;18.00;8.88;;;14.20;99.90;;;;;;4216713;28;20161;-90
2022/05/05 00:24:27;;;;;;;20.55;8.75;;;14.20;99.90;;;;;;4200119;28;20212;-91
2022/05/05 00:26:28;;;;;;;17.10;8.35;;;14.10;99.90;;;;;;4199964;28;20170;-90
2022/05/05 00:28:29;;;;;;;15.75;8.63;;;14.00;99.90;;;;;;4199715;28;20294;-90
2022/05/05 00:30:29;;;;;;;17.75;9.65;;;14.00;99.90;;;;;;4199719;28;20164;-90
2022/05/05 00:32:30;;;;;;;20.13;10.30;;;13.80;99.90;;;;;;4199667;28;20685;-91
2022/05/05 00:34:31;;;;;;;18.45;10.02;;;13.70;99.90;;;;;;4199810;28;20167;-90
2022/05/05 00:36:32;;;;;;;17.90;10.02;;;13.70;99.90;;;;;;4199885;28;20265;-91
2022/05/05 00:38:32;;;;;;;22.38;11.10;;;13.60;99.90;;;;;;4216677;28;20187;-92
2022/05/05 00:40:33;;;;;;;21.83;10.93;;;13.50;99.90;;;;;;4216315;28;20182;-90
2022/05/05 00:42:35;;;;;;;22.58;10.52;;;13.40;99.90;;;;;;4199750;28;20575;-92
2022/05/05 00:44:37;;;;;;;21.23;11.38;;;13.40;99.90;;;;;;4199760;28;20607;-92
2022/05/05 00:46:38;;;;;;;17.85;10.98;;;13.40;99.90;;;;;;4216460;28;20209;-90
2022/05/05 00:48:42;;;;;;;18.25;11.70;;;13.30;99.90;;;;;;4199912;28;20257;-91
2022/05/05 00:50:43;;;;;;;18.50;11.80;;;13.30;99.90;;;;;;4199945;28;20240;-91
2022/05/05 00:52:44;;;;;;;20.23;11.55;;;13.30;99.90;;;;;;4199925;28;20261;-90
2022/05/05 00:54:44;;;;;;;24.45;12.57;;;13.40;99.90;;;;;;4200019;28;20159;-89
2022/05/05 00:56:46;;;;;;;20.30;12.35;;;13.40;99.90;;;;;;4216337;28;20184;-89
2022/05/05 00:58:48;;;;;;;21.15;11.68;;;13.50;99.90;;;;;;4199436;28;20287;-90
2022/05/05 01:00:49;;;;;;;23.05;13.20;;;13.50;99.90;;;;;;4199590;28;20670;-89
2022/05/05 01:02:51;;;;;;;20.45;12.18;;;13.50;99.90;;;;;;4199526;28;20183;-90
2022/05/05 01:04:51;;;;;;;24.88;12.45;;;13.50;99.90;;;;;;4199344;28;20186;-90
2022/05/05 01:06:52;;;;;;;23.35;12.20;;;13.50;99.90;;;;;;4199256;28;20347;-90
2022/05/05 01:08:53;;;;;;;23.95;12.45;;;13.60;99.90;;;;;;4199379;28;20187;-90
2022/05/05 01:10:54;;;;;;;28.85;13.70;;;13.60;99.90;;;;;;4199147;28;20220;-90
2022/05/05 01:12:55;;;;;;;27.00;12.82;;;13.50;99.90;;;;;;4199086;28;20658;-91
2022/05/05 01:14:56;;;;;;;27.08;14.30;;;13.50;99.90;;;;;;4199476;28;20163;-90
2022/05/05 01:16:58;;;;;;;30.67;14.07;;;13.50;99.90;;;;;;4199108;28;20175;-91
2022/05/05 01:18:59;;;;;;;29.67;14.57;;;13.50;99.90;;;;;;4215802;28;20193;-91
2022/05/05 01:21:00;;;;;;;27.10;14.55;;;13.50;99.90;;;;;;4216011;28;20178;-90
2022/05/05 01:23:00;;;;;;;28.58;13.52;;;13.40;99.90;;;;;;4215698;28;20174;-91
2022/05/05 01:29:39;;;;;;;25.92;14.23;;;13.40;99.90;;;;;;4215759;28;20703;-93
2022/05/05 01:31:43;;;;;;;28.15;13.73;;;13.40;99.90;;;;;;4215436;28;20170;-91
2022/05/05 01:33:44;;;;;;;25.23;13.48;;;13.40;99.90;;;;;;4198833;28;20181;-90
2022/05/05 01:35:47;;;;;;;25.30;14.30;;;13.50;99.90;;;;;;4198822;28;20635;-91
2022/05/05 01:37:48;;;;;;;30.80;14.05;;;13.60;99.90;;;;;;4215537;28;20174;-91
2022/05/05 01:39:49;;;;;;;25.10;14.32;;;13.50;99.90;;;;;;4198812;28;20191;-90
2022/05/05 01:41:49;;;;;;;24.00;15.05;;;13.50;99.90;;;;;;4198703;28;20182;-90
2022/05/05 01:43:50;;;;;;;27.80;15.25;;;13.50;99.90;;;;;;4198812;28;20270;-95
2022/05/05 01:45:51;;;;;;;27.58;14.80;;;13.60;99.90;;;;;;4215578;28;20620;-91
2022/05/05 01:47:52;;;;;;;28.75;15.45;;;13.60;99.90;;;;;;4198758;28;20206;-92
2022/05/05 01:49:57;;;;;;;34.53;15.15;;;13.60;99.90;;;;;;4215394;28;20201;-91
2022/05/05 01:51:58;;;;;;;27.08;15.63;;;13.60;99.90;;;;;;4214562;28;20177;-90
2022/05/05 01:53:59;;;;;;;26.10;15.93;;;13.50;99.90;;;;;;4215324;28;20238;-91
2022/05/05 01:55:59;;;;;;;30.85;16.33;;;13.50;99.90;;;;;;4198575;28;20210;-89
2022/05/05 01:58:02;;;;;;;25.33;15.63;;;13.50;99.90;;;;;;4198277;28;20229;-90
2022/05/05 02:00:04;;;;;;;31.75;16.85;;;13.50;99.90;;;;;;4198193;28;20659;-90
2022/05/05 02:02:15;;;;;;;28.23;17.00;;;13.60;99.90;;;;;;4215327;28;20206;-91
2022/05/05 02:04:15;;;;;;;29.15;16.85;;;13.60;99.90;;;;;;4215016;28;20657;-91
2022/05/05 02:06:16;;;;;;;31.38;17.45;;;13.60;99.90;;;;;;4215231;28;20182;-90
2022/05/05 02:08:17;;;;;;;31.75;17.27;;;13.60;99.90;;;;;;4198319;28;20211;-89
2022/05/05 02:10:20;;;;;;;32.33;17.73;;;13.70;99.90;;;;;;4198428;28;20623;-91
2022/05/05 02:12:21;;;;;;;32.72;17.58;;;13.70;99.90;;;;;;4215199;28;20165;-91
2022/05/05 02:14:24;;;;;;;31.20;17.15;;;13.60;99.90;;;;;;4198461;28;20174;-90
2022/05/05 02:16:25;;;;;;;37.30;16.40;;;13.70;99.90;;;;;;4215101;28;20169;-90
2022/05/05 02:18:27;;;;;;;27.65;16.65;;;13.70;99.90;;;;;;4197732;28;20194;-90
2022/05/05 02:20:27;;;;;;;31.90;17.48;;;13.70;99.90;;;;;;4198110;28;20178;-91
2022/05/05 02:22:28;;;;;;;30.50;17.13;;;13.60;99.90;;;;;;4198075;28;20210;-90
2022/05/05 02:24:29;;;;;;;36.78;18.02;;;13.60;99.90;;;;;;4198033;28;20603;-91
2022/05/05 02:26:30;;;;;;;32.70;17.42;;;13.60;99.90;;;;;;4214828;28;20185;-90
2022/05/05 02:28:31;;;;;;;30.13;17.30;;;13.60;99.90;;;;;;4231133;22;20217;-94
2022/05/05 02:30:32;;;;;;;33.28;17.88;;;13.70;99.90;;;;;;4198035;28;20647;-94
2022/05/05 02:32:33;;;;;;;35.33;18.25;;;13.70;99.90;;;;;;4198057;28;20169;-93
2022/05/05 02:34:34;;;;;;;33.13;17.83;;;13.80;99.90;;;;;;4198035;28;20175;-94
2022/05/05 02:38:55;;;;;;;32.65;17.85;;;13.80;99.90;;;;;;4214558;28;20222;-94
2022/05/05 02:40:56;;;;;;;31.08;17.83;;;13.80;99.90;;;;;;4215165;28;20158;-92
2022/05/05 02:42:57;;;;;;;31.83;17.73;;;13.80;99.90;;;;;;4197997;28;20261;-94
2022/05/05 02:44:58;;;;;;;35.67;18.95;;;13.80;99.90;;;;;;4197954;28;20622;-94
2022/05/05 02:47:00;;;;;;;36.60;19.02;;;13.80;99.90;;;;;;4214487;28;20221;-94
2022/05/05 02:49:01;;;;;;;28.58;17.52;;;13.80;99.90;;;;;;4197731;28;20732;-93
2022/05/05 02:51:02;;;;;;;35.65;19.42;;;13.80;99.90;;;;;;4214296;28;20178;-94
2022/05/05 02:54:47;;;;;;;34.40;19.40;;;13.80;99.90;;;;;;4197703;28;20639;-92
2022/05/05 02:55:24;;;;;;;35.00;18.65;;;13.80;99.90;;;;;;4214413;28;20203;-94
2022/05/05 02:57:24;;;;;;;30.83;17.73;;;13.70;99.90;;;;;;4197541;28;20167;-94
2022/05/05 02:59:25;;;;;;;31.20;17.88;;;13.60;99.90;;;;;;4214257;28;20208;-94
2022/05/05 03:01:26;;;;;;;33.33;18.10;;;13.50;99.90;;;;;;4214232;28;20631;-95
2022/05/05 03:03:27;;;;;;;35.15;19.20;;;13.40;99.90;;;;;;4214335;28;20188;-94
2022/05/05 03:05:27;;;;;;;30.83;18.08;;;13.40;99.90;;;;;;4197651;28;20563;-95
2022/05/05 03:07:28;;;;;;;35.58;18.38;;;13.40;99.90;;;;;;4197642;28;20221;-94
2022/05/05 03:09:29;;;;;;;32.03;17.98;;;13.40;99.90;;;;;;4197731;28;20194;-95
2022/05/05 03:11:30;;;;;;;33.63;17.65;;;13.40;99.90;;;;;;4197526;28;20229;-94
2022/05/05 03:13:30;;;;;;;32.00;18.27;;;13.40;99.90;;;;;;4214695;28;20202;-94
2022/05/05 03:15:32;;;;;;;32.83;19.02;;;13.40;99.90;;;;;;4197443;28;20177;-93
2022/05/05 03:17:33;;;;;;;38.72;18.52;;;13.30;99.90;;;;;;4214162;28;20202;-93
2022/05/05 03:19:33;;;;;;;37.25;18.92;;;13.30;99.90;;;;;;4197485;28;20639;-96
2022/05/05 03:21:34;;;;;;;34.65;18.90;;;13.30;99.90;;;;;;4197444;28;20167;-94
2022/05/05 03:23:35;;;;;;;34.47;18.85;;;13.40;99.90;;;;;;4197475;28;20167;-93
2022/05/05 03:25:37;;;;;;;37.13;19.10;;;13.40;99.90;;;;;;4213945;28;20169;-95
2022/05/05 03:27:39;;;;;;;37.40;18.88;;;13.50;99.90;;;;;;4197116;28;20625;-93
2022/05/05 03:29:41;;;;;;;39.58;19.50;;;13.60;99.90;;;;;;4197369;28;20191;-94
2022/05/05 03:31:42;;;;;;;41.72;19.88;;;13.50;99.90;;;;;;4197707;28;20206;-92
2022/05/05 03:33:43;;;;;;;41.13;18.70;;;13.50;99.90;;;;;;4197518;28;20166;-93
2022/05/05 03:35:44;;;;;;;39.08;20.13;;;13.60;99.90;;;;;;4197894;28;20674;-94
2022/05/05 03:37:44;;;;;;;43.75;20.98;;;13.50;99.90;;;;;;4197526;28;20292;-95
2022/05/05 03:39:46;;;;;;;33.88;19.20;;;13.60;99.90;;;;;;4197481;28;20186;-94
2022/05/05 03:41:47;;;;;;;32.17;18.98;;;13.60;99.90;;;;;;4214181;28;20174;-92
2022/05/05 03:43:48;;;;;;;36.03;19.10;;;13.60;99.90;;;;;;4197337;28;20179;-94
2022/05/05 03:45:48;;;;;;;34.03;19.02;;;13.60;99.90;;;;;;4197465;28;20201;-93
2022/05/05 03:47:49;;;;;;;35.28;19.17;;;13.50;99.90;;;;;;4197286;28;20214;-94
2022/05/05 03:49:50;;;;;;;34.03;19.55;;;13.50;99.90;;;;;;4213897;28;20642;-92
2022/05/05 03:51:51;;;;;;;31.15;17.80;;;13.40;99.90;;;;;;4197438;28;20185;-93
2022/05/05 03:53:52;;;;;;;38.00;19.60;;;13.30;99.90;;;;;;4213886;28;20173;-94
2022/05/05 03:55:53;;;;;;;35.58;19.05;;;13.40;99.90;;;;;;4197243;28;20597;-93
2022/05/05 03:57:54;;;;;;;33.50;17.80;;;13.40;99.90;;;;;;4214048;28;20198;-95
2022/05/05 03:59:55;;;;;;;32.40;18.70;;;13.30;99.90;;;;;;4213909;28;20205;-92
2022/05/05 04:01:55;;;;;;;31.88;19.17;;;13.30;99.90;;;;;;4197239;28;20171;-93
2022/05/05 04:03:56;;;;;;;33.95;19.50;;;13.40;99.90;;;;;;4197649;28;20224;-95
2022/05/05 04:05:58;;;;;;;34.60;19.80;;;13.40;99.90;;;;;;4197633;28;20203;-94
2022/05/05 04:08:01;;;;;;;35.42;19.48;;;13.30;99.90;;;;;;4213927;28;20221;-96
2022/05/05 04:10:02;;;;;;;32.78;19.35;;;13.30;99.90;;;;;;4197419;28;20164;-94
2022/05/05 04:12:03;;;;;;;38.75;20.15;;;13.40;99.90;;;;;;4197225;28;20175;-95
2022/05/05 04:14:04;;;;;;;36.95;19.75;;;13.40;99.90;;;;;;4196976;28;20167;-95
2022/05/05 04:16:05;;;;;;;37.85;20.88;;;13.40;99.90;;;;;;4199621;28;20178;-93
2022/05/05 04:18:08;;;;;;;36.72;19.85;;;13.40;99.90;;;;;;4200075;28;20178;-94
2022/05/05 04:20:10;;;;;;;40.72;18.90;;;13.40;99.90;;;;;;4216645;28;20221;-94
2022/05/05 04:22:11;;;;;;;32.00;19.85;;;13.40;99.90;;;;;;4200520;28;20296;-95
2022/05/05 04:24:12;;;;;;;36.60;19.85;;;13.40;99.90;;;;;;4200405;28;20183;-95
2022/05/05 04:26:14;;;;;;;38.30;20.00;;;13.40;99.90;;;;;;4216821;28;20199;-95
2022/05/05 04:28:18;;;;;;;39.55;19.73;;;13.40;99.90;;;;;;4199717;28;20687;-94
2022/05/05 04:30:21;;;;;;;34.70;19.92;;;13.40;99.90;;;;;;4216640;28;20592;-95
2022/05/05 04:32:22;;;;;;;37.97;20.50;;;13.30;99.90;;;;;;4200218;28;20225;-94
2022/05/05 04:34:23;;;;;;;32.20;19.55;;;13.30;99.90;;;;;;4200180;28;20163;-94
2022/05/05 04:36:25;;;;;;;40.03;20.90;;;13.40;99.90;;;;;;4216436;28;20188;-94
2022/05/05 04:38:26;;;;;;;35.28;19.90;;;13.40;99.90;;;;;;4199526;28;20190;-95
2022/05/05 04:40:27;;;;;;;36.70;20.17;;;13.40;99.90;;;;;;4199569;28;20646;-95
2022/05/05 04:42:27;;;;;;;36.13;19.75;;;13.40;99.90;;;;;;4199514;28;20196;-95
2022/05/05 04:44:28;;;;;;;30.95;18.60;;;13.50;99.90;;;;;;4216277;28;20171;-94
2022/05/05 04:46:29;;;;;;;34.53;19.25;;;13.50;99.90;;;;;;4199219;28;20167;-94
2022/05/05 04:48:30;;;;;;;34.45;19.40;;;13.50;99.90;;;;;;4216049;28;20196;-94
2022/05/05 04:50:30;;;;;;;34.67;19.55;;;13.40;99.90;;;;;;4199633;28;20190;-94
2022/05/05 04:52:32;;;;;;;37.13;20.08;;;13.40;99.90;;;;;;4216387;28;20173;-95
2022/05/05 04:54:38;;;;;;;33.75;19.80;;;13.40;99.90;;;;;;4216470;28;20579;-93
2022/05/05 04:56:39;;;;;;;37.90;19.38;;;13.50;99.90;;;;;;4199507;28;20178;-94
2022/05/05 04:58:39;;;;;;;35.60;19.88;;;13.50;99.90;;;;;;4215972;28;20198;-94
2022/05/05 05:00:40;;;;;;;39.00;21.35;;;13.50;99.90;;;;;;4216121;28;20677;-94
2022/05/05 05:02:41;;;;;;;33.40;19.42;;;13.50;99.90;;;;;;4216250;28;20558;-94
2022/05/05 05:04:42;;;;;;;35.75;20.30;;;13.60;99.90;;;;;;4199558;28;20194;-94
2022/05/05 05:06:43;;;;;;;37.15;20.17;;;13.60;99.90;;;;;;4216105;28;20166;-94
2022/05/05 05:08:45;;;;;;;34.40;19.05;;;13.70;99.90;;;;;;4215996;28;20228;-94
2022/05/05 05:10:46;;;;;;;32.00;19.65;;;13.70;99.90;;;;;;4199295;28;20202;-94
2022/05/05 05:12:47;;;;;;;32.90;20.35;;;13.80;99.90;;;;;;4199206;28;20257;-94
2022/05/05 05:14:48;;;;;;;38.50;20.63;;;13.80;99.90;;;;;;4199312;28;20175;-94
2022/05/05 05:16:49;;;;;;;35.03;19.42;;;13.80;99.90;;;;;;4199265;28;20171;-94
2022/05/05 05:18:53;;;;;;;37.08;21.17;;;13.70;99.90;;;;;;4199242;28;20258;-94
2022/05/05 05:20:54;;;;;;;38.22;19.95;;;13.70;99.90;;;;;;4199160;28;20171;-95
2022/05/05 05:22:55;;;;;;;36.75;20.50;;;13.60;99.90;;;;;;4199013;28;20176;-94
2022/05/05 05:24:56;;;;;;;36.28;20.90;;;13.70;99.90;;;;;;4199217;28;20175;-95
2022/05/05 05:26:56;;;;;;;35.20;19.90;;;13.70;99.90;;;;;;4197801;28;20222;-96
2022/05/05 05:28:57;;;;;;;31.65;18.88;;;13.80;99.90;;;;;;4198781;28;20594;-96
2022/05/05 05:30:58;;;;;;;36.28;19.20;;;13.80;99.90;;;;;;4199029;28;20163;-94
2022/05/05 05:32:59;;;;;;;33.28;18.95;;;13.90;99.90;;;;;;4199098;28;20635;-96
2022/05/05 05:35:00;;;;;;;35.33;18.85;;;14.00;99.90;;;;;;4215923;28;20193;-94
2022/05/05 05:37:00;;;;;;;33.55;19.10;;;14.00;99.90;;;;;;4198689;28;20186;-95
2022/05/05 05:39:01;;;;;;;37.25;19.25;;;14.20;99.90;;;;;;4215511;28;20182;-95
2022/05/05 05:41:02;;;;;;;37.28;20.95;;;14.30;99.90;;;;;;4199010;28;20278;-95
2022/05/05 05:43:04;;;;;;;32.92;19.73;;;14.30;99.90;;;;;;4215744;28;20171;-95
2022/05/05 05:45:08;;;;;;;34.72;19.42;;;14.40;99.90;;;;;;4198763;28;20276;-95
2022/05/05 05:47:10;;;;;;;33.67;18.40;;;14.50;99.90;;;;;;4198485;28;20626;-93
2022/05/05 05:49:11;;;;;;;32.03;19.65;;;14.40;99.90;;;;;;4198838;28;20289;-96
2022/05/05 05:51:13;;;;;;;37.03;19.33;;;14.40;99.90;;;;;;4215452;28;20167;-93
2022/05/05 05:53:14;;;;;;;41.15;19.85;;;14.40;99.90;;;;;;4215589;28;20170;-91
2022/05/05 05:55:15;;;;;;;41.05;20.20;;;14.40;99.90;;;;;;4215319;28;20178;-94
2022/05/05 05:57:16;;;;;;;32.85;19.73;;;14.50;99.90;;;;;;4198503;28;20324;-95
2022/05/05 05:59:17;;;;;;;34.78;20.17;;;14.60;99.90;;;;;;4198356;28;20191;-96
2022/05/05 06:01:18;;;;;;;35.13;20.13;;;14.50;99.90;;;;;;4215043;28;20170;-95
2022/05/05 06:05:45;;;;;;;31.95;19.30;;;14.40;99.90;;;;;;4215530;28;20507;-95
2022/05/05 06:07:46;;;;;;;39.53;19.17;;;14.50;99.90;;;;;;4215237;28;20285;-95
2022/05/05 06:09:46;;;;;;;32.03;19.13;;;14.60;99.90;;;;;;4198384;28;20783;-93
2022/05/05 06:11:50;;;;;;;37.40;19.85;;;14.70;99.90;;;;;;4198297;28;20178;-95
2022/05/05 06:13:53;;;;;;;30.58;19.52;;;14.80;99.90;;;;;;4198447;28;20181;-94
2022/05/05 06:15:53;;;;;;;31.58;18.30;;;14.80;99.90;;;;;;4198479;28;20202;-93
2022/05/05 06:17:55;;;;;;;34.92;20.05;;;14.80;99.90;;;;;;4198398;28;20198;-96
2022/05/05 06:19:55;;;;;;;32.35;18.70;;;14.90;99.90;;;;;;4215234;28;20186;-94
2022/05/05 06:21:57;;;;;;;31.10;19.25;;;15.00;99.90;;;;;;4214834;28;20204;-96
2022/05/05 06:23:57;;;;;;;32.65;19.52;;;14.90;99.90;;;;;;4197990;28;20177;-96
2022/05/05 06:25:58;;;;;;;32.88;19.00;;;15.00;99.90;;;;;;4214926;28;20201;-95
2022/05/05 06:27:59;;;;;;;34.83;19.52;;;15.00;99.90;;;;;;4214737;28;20248;-95
2022/05/05 06:30:01;;;;;;;35.45;19.95;;;15.20;99.90;;;;;;4198038;28;20175;-93
2022/05/05 06:32:02;;;;;;;32.63;18.75;;;15.20;99.90;;;;;;4198053;28;20166;-93
2022/05/05 06:34:03;;;;;;;35.08;19.30;;;15.20;99.90;;;;;;4197994;28;20170;-94
2022/05/05 06:36:04;;;;;;;35.22;19.95;;;15.20;99.90;;;;;;4197575;28;20581;-95
2022/05/05 06:38:05;;;;;;;41.17;21.58;;;15.30;99.90;;;;;;4197474;28;20702;-96
2022/05/05 06:40:06;;;;;;;37.90;21.70;;;15.40;99.90;;;;;;4214592;28;20166;-95
2022/05/05 06:42:08;;;;;;;38.30;22.60;;;15.50;99.90;;;;;;4198133;28;20179;-96
2022/05/05 06:44:09;;;;;;;37.55;21.00;;;15.70;99.90;;;;;;4197911;28;20672;-94
2022/05/05 06:46:09;;;;;;;41.13;22.63;;;15.70;99.90;;;;;;4197936;28;20171;-93
2022/05/05 06:48:10;;;;;;;40.55;21.77;;;15.80;99.90;;;;;;4197483;28;20280;-93
2022/05/05 06:50:11;;;;;;;43.58;22.55;;;15.90;99.90;;;;;;4197804;28;20170;-93
2022/05/05 06:52:12;;;;;;;43.90;20.75;;;16.00;99.90;;;;;;4214408;28;20166;-94
2022/05/05 06:54:13;;;;;;;53.58;23.17;;;15.90;99.90;;;;;;4197919;28;20609;-95
2022/05/05 06:56:13;;;;;;;82.00;23.15;;;16.00;99.90;;;;;;4214024;28;20658;-92
2022/05/05 06:58:14;;;;;;;37.20;21.35;;;16.10;99.90;;;;;;4197754;28;20199;-94
2022/05/05 07:00:15;;;;;;;40.88;21.88;;;16.30;99.90;;;;;;4197652;28;20257;-94
2022/05/05 07:02:16;;;;;;;44.58;20.85;;;16.30;99.90;;;;;;4197761;28;20174;-92
2022/05/05 07:06:40;;;;;;;40.42;21.23;;;16.20;99.90;;;;;;4214247;28;20185;-93
2022/05/05 07:11:01;;;;;;;41.72;21.58;;;15.70;99.90;;;;;;4214454;28;20237;-94
2022/05/05 07:13:02;;;;;;;52.08;22.90;;;15.80;99.90;;;;;;4197740;28;20194;-95
2022/05/05 07:15:03;;;;;;;45.65;23.30;;;15.60;99.90;;;;;;4214472;28;20170;-93
2022/05/05 07:17:04;;;;;;;40.03;22.17;;;15.30;99.90;;;;;;4197525;28;20237;-94
2022/05/05 07:19:04;;;;;;;40.75;21.75;;;15.50;99.90;;;;;;4213921;28;20315;-95
2022/05/05 07:21:05;;;;;;;41.08;22.30;;;15.60;99.90;;;;;;4214280;28;20173;-93
2022/05/05 07:23:10;;;;;;;45.40;22.90;;;15.70;99.90;;;;;;4214268;28;20183;-93
2022/05/05 07:25:10;;;;;;;42.45;23.10;;;15.60;99.90;;;;;;4197650;28;20159;-94
2022/05/05 07:27:11;;;;;;;43.53;24.38;;;15.70;99.90;;;;;;4197482;28;20239;-94
2022/05/05 07:29:14;;;;;;;41.88;23.33;;;15.90;99.90;;;;;;4197115;28;20375;-93
2022/05/05 07:31:14;;;;;;;39.58;22.52;;;16.10;99.90;;;;;;4197250;28;20182;-93
2022/05/05 07:33:15;;;;;;;38.03;22.85;;;16.30;99.90;;;;;;4197407;28;20177;-93
2022/05/05 07:35:17;;;;;;;41.13;23.00;;;16.40;99.90;;;;;;4214153;28;20622;-95
2022/05/05 07:37:17;;;;;;;40.15;22.02;;;16.50;99.90;;;;;;4197625;28;20170;-94
2022/05/05 07:39:18;;;;;;;41.53;22.50;;;16.50;99.90;;;;;;4197386;28;20191;-93
2022/05/05 07:41:19;;;;;;;55.38;24.10;;;16.50;99.90;;;;;;4197432;28;20194;-93
2022/05/05 07:43:20;;;;;;;49.13;23.20;;;16.20;99.90;;;;;;4197527;28;20270;-94
2022/05/05 07:45:21;;;;;;;46.03;23.23;;;16.20;99.90;;;;;;4197524;28;20167;-93
2022/05/05 07:47:22;;;;;;;45.17;23.90;;;15.90;99.90;;;;;;4213848;28;20219;-93
2022/05/05 07:49:23;;;;;;;43.20;23.75;;;15.80;99.90;;;;;;4197295;28;20202;-94
2022/05/05 07:51:24;;;;;;;42.13;24.00;;;16.10;99.90;;;;;;4200231;28;20258;-93
2022/05/05 07:53:25;;;;;;;66.18;23.90;;;16.30;99.90;;;;;;4200300;28;20167;-94
2022/05/05 07:55:26;;;;;;;39.45;22.15;;;16.50;99.90;;;;;;4200539;28;20174;-93
2022/05/05 07:57:26;;;;;;;41.60;23.52;;;16.80;99.90;;;;;;4200441;28;20320;-90
2022/05/05 07:59:27;;;;;;;45.17;23.38;;;16.90;99.90;;;;;;4216916;28;20229;-94
2022/05/05 08:01:28;;;;;;;40.72;22.00;;;17.10;99.90;;;;;;4217088;28;20239;-94
2022/05/05 08:03:29;;;;;;;40.30;23.20;;;17.20;99.90;;;;;;4200107;28;20179;-94
2022/05/05 08:05:30;;;;;;;39.38;22.08;;;17.40;99.90;;;;;;4200128;28;20206;-94
2022/05/05 08:07:31;;;;;;;39.55;22.58;;;17.50;99.90;;;;;;4200110;28;20244;-95
2022/05/05 08:09:31;;;;;;;39.67;22.92;;;17.80;99.90;;;;;;4216939;28;20668;-91
2022/05/05 08:11:34;;;;;;;34.67;21.23;;;18.00;99.90;;;;;;4200442;28;20179;-94
2022/05/05 08:13:35;;;;;;;37.95;20.73;;;18.20;99.90;;;;;;4200445;28;20171;-94
2022/05/05 08:15:36;;;;;;;36.53;21.52;;;18.40;99.90;;;;;;4216946;28;20170;-94
2022/05/05 08:17:37;;;;;;;33.33;20.33;;;18.50;99.90;;;;;;4199973;28;20167;-95
2022/05/05 08:19:38;;;;;;;36.85;20.88;;;18.40;99.90;;;;;;4200120;28;20282;-94
2022/05/05 08:21:38;;;;;;;37.67;21.20;;;18.10;99.90;;;;;;4216876;28;20208;-94
2022/05/05 08:23:39;;;;;;;37.58;20.52;;;17.80;99.90;;;;;;4200145;28;20515;-93
2022/05/05 08:28:36;;;;;;;37.65;20.58;;;17.50;99.90;;;;;;4232284;22;20189;-90
2022/05/05 08:30:26;;;;;;;37.80;21.10;;;17.70;99.90;;;;;;4197775;28;20190;-91
2022/05/05 08:32:27;;;;;;;35.88;19.63;;;17.80;99.90;;;;;;4183427;28;20206;-90
2022/05/05 08:34:27;;;;;;;37.80;20.27;;;17.80;99.90;;;;;;4183421;28;20178;-91
2022/05/05 08:36:28;;;;;;;31.23;19.67;;;18.30;99.90;;;;;;4183480;28;20178;-94
2022/05/05 08:38:29;;;;;;;37.15;20.08;;;18.60;99.90;;;;;;4199880;28;20321;-90
2022/05/05 08:40:29;;;;;;;61.08;20.45;;;18.90;99.90;;;;;;4183425;28;20176;-90
2022/05/05 08:42:30;;;;;;;26.38;16.90;;;18.80;99.90;;;;;;4199838;28;20270;-91
2022/05/05 08:44:31;;;;;;;31.67;18.80;;;19.30;99.90;;;;;;4200933;28;20265;-90
2022/05/05 08:46:33;;;;;;;30.52;18.45;;;20.20;99.90;;;;;;4183891;28;20675;-91
2022/05/05 08:48:35;;;;;;;27.08;16.77;;;21.00;99.90;;;;;;4183525;28;20215;-92
2022/05/05 08:50:44;;;;;;;34.10;18.33;;;21.90;99.90;;;;;;4216909;28;20170;-96
2022/05/05 08:52:48;;;;;;;25.67;17.10;;;23.20;99.90;;;;;;4199957;28;20275;-90
2022/05/05 08:54:49;;;;;;;25.02;17.23;;;24.50;99.90;;;;;;4201663;28;20171;-91
2022/05/05 08:56:54;;;;;;;24.27;15.85;;;24.40;99.90;;;;;;4184690;28;20619;-96
2022/05/05 08:58:54;;;;;;;24.08;15.15;;;24.20;99.90;;;;;;4199816;28;20524;-91
2022/05/05 09:00:55;;;;;;;22.60;15.05;;;23.90;99.90;;;;;;4185460;28;20230;-96
2022/05/05 09:03:00;;;;;;;20.75;14.52;;;22.90;99.90;;;;;;4183423;28;20167;-90
2022/05/05 09:05:03;;;;;;;20.58;13.52;;;22.50;99.90;;;;;;4184295;28;20175;-90
2022/05/05 09:07:04;;;;;;;21.45;14.65;;;22.20;99.90;;;;;;4199561;28;20206;-90
2022/05/05 09:09:06;;;;;;;20.38;13.82;;;22.10;99.90;;;;;;4199352;28;20221;-90
2022/05/05 09:11:07;;;;;;;24.02;14.50;;;22.50;99.90;;;;;;4183508;28;20227;-91
2022/05/05 09:13:08;;;;;;;24.52;15.13;;;22.80;99.90;;;;;;4199906;28;20179;-90
2022/05/05 09:15:10;;;;;;;23.88;15.18;;;22.80;99.90;;;;;;4199374;28;20205;-90
2022/05/05 09:17:18;;;;;;;22.65;14.27;;;23.70;99.90;;;;;;4200191;28;20183;-90
2022/05/05 09:19:20;;;;;;;26.65;15.80;;;23.80;99.90;;;;;;4201554;28;20214;-90
2022/05/05 09:21:34;;;;;;;26.98;17.83;;;23.40;99.90;;;;;;4200459;28;20191;-90
2022/05/05 09:24:34;;;;;;;29.35;17.83;;;23.20;99.90;;;;;;4199912;28;20253;-94
2022/05/05 09:26:00;;;;;;;38.67;16.73;;;22.90;99.90;;;;;;4218445;28;20277;-90
2022/05/05 09:28:18;;;;;;;21.35;14.68;;;22.50;99.90;;;;;;4201555;28;20222;-89
2022/05/05 09:30:18;;;;;;;21.15;14.45;;;21.80;99.90;;;;;;4200792;28;20242;-90
2022/05/05 09:32:19;;;;;;;19.50;13.00;;;21.50;99.90;;;;;;4184297;28;20160;-96
2022/05/05 09:34:20;;;;;;;19.67;13.07;;;21.30;99.90;;;;;;4186152;28;20179;-89
2022/05/05 09:36:27;;;;;;;22.15;13.90;;;20.50;99.90;;;;;;4185910;28;20266;-89
2022/05/05 09:38:58;;;;;;;20.58;13.93;;;20.40;99.90;;;;;;4201048;28;20198;-90
2022/05/05 09:41:03;;;;;;;19.27;13.35;;;20.00;99.90;;;;;;4199527;28;20182;-89
2022/05/05 09:43:03;;;;;;;24.33;13.52;;;20.20;99.90;;;;;;4202465;28;20201;-95
2022/05/05 09:45:19;;;;;;;20.90;13.60;;;19.90;99.90;;;;;;4184732;28;20168;-89
2022/05/05 09:47:20;;;;;;;21.15;13.02;;;20.60;99.90;;;;;;4198680;28;20285;-90
2022/05/05 09:49:20;;;;;;;18.75;12.43;;;20.60;99.90;;;;;;4215328;28;20581;-90
2022/05/05 09:51:21;;;;;;;17.90;10.48;;;20.80;99.90;;;;;;4184698;28;20171;-90
2022/05/05 09:58:09;;;;;;;16.42;10.52;;;21.60;99.90;;;;;;4216682;28;20178;-90
2022/05/05 10:00:43;;;;;;;18.75;10.18;;;21.60;99.90;;;;;;4184272;28;20170;-89
2022/05/05 10:05:06;;;;;;;56.75;14.48;;;21.50;99.90;;;;;;4217792;28;20231;-89
2022/05/05 10:07:09;;;;;;;21.42;11.95;;;21.90;99.90;;;;;;4200270;28;20198;-91
2022/05/05 10:09:12;;;;;;;18.17;11.88;;;22.00;99.90;;;;;;4183495;28;20193;-90
2022/05/05 10:11:19;;;;;;;18.85;11.48;;;21.60;99.90;;;;;;4182476;28;20187;-91
2022/05/05 10:13:20;;;;;;;17.00;11.82;;;21.60;99.90;;;;;;4199229;28;20257;-90
2022/05/05 10:15:22;;;;;;;19.65;12.77;;;21.90;99.90;;;;;;4215684;28;20178;-91
2022/05/05 10:17:23;;;;;;;18.60;11.90;;;22.00;99.90;;;;;;4185026;28;20195;-95
2022/05/05 10:19:23;;;;;;;20.63;12.40;;;21.70;99.90;;;;;;4216827;28;20218;-90
2022/05/05 10:22:01;;;;;;;20.30;13.88;;;22.10;99.90;;;;;;4182747;28;20168;-90
2022/05/05 10:24:15;;;;;;;21.58;12.98;;;21.90;99.90;;;;;;4215498;28;20240;-91
2022/05/05 10:26:24;;;;;;;22.23;13.75;;;21.70;99.90;;;;;;4199816;28;20238;-90
2022/05/05 10:28:40;;;;;;;19.08;13.15;;;22.10;99.90;;;;;;4199485;28;20238;-90
2022/05/05 10:30:41;;;;;;;20.63;12.68;;;22.40;99.90;;;;;;4198710;28;20199;-90
2022/05/05 10:32:42;;;;;;;26.27;13.23;;;22.50;99.90;;;;;;4181932;28;20178;-92
2022/05/05 10:34:51;;;;;;;21.52;12.95;;;22.70;99.90;;;;;;4181726;28;20679;-90
2022/05/05 10:37:04;;;;;;;22.45;13.65;;;22.70;99.90;;;;;;4199897;28;20190;-90
2022/05/05 10:39:17;;;;;;;18.05;13.07;;;23.10;99.90;;;;;;4215725;28;20583;-92
2022/05/05 10:41:34;;;;;;;22.23;12.23;;;23.00;99.90;;;;;;4216296;28;20188;-93
2022/05/05 10:43:35;;;;;;;19.38;12.35;;;23.00;99.90;;;;;;4218219;28;20185;-95
2022/05/05 10:45:35;;;;;;;19.27;11.40;;;23.10;99.90;;;;;;4182118;28;20180;-91
2022/05/05 10:47:52;;;;;;;18.73;11.30;;;23.00;99.90;;;;;;4182111;28;20341;-89
2022/05/05 10:49:53;;;;;;;17.02;11.88;;;23.50;99.90;;;;;;4199532;28;20194;-91